Hovedside
METAR-TAF:

METAR-TAF

Lufthavner :

Aarhus lufthavn

Aarhus, Danmark

breddegrad: 56-18N, lengdegrad: 010-37E, høyde over havet: 23 m

Gjeldene værobservasjon

Denne rapporten ble laget for 16 minutter siden, klokken 04:50 UTC
Vind 6 kt fra Øst-sørøst, skiftende mellom Øst og Sørøst
Temperatur 11°C
Luftfuktighet 82%
Trykk 1008 hPa
Sikt 10 km eller mer

METAR: EKAH 250450Z AUTO 11006KT 080V140 9999NDV NCD 11/08 Q1008

Tid: 07:06 (05:06 UTC)

Varsel

Denne rapporten ble laget for 5 timer og 52 minutter siden, klokken 23:14 UTC
Varsel gyldig fra 25. klokken 00 UTC til 25. klokken 24 UTC
Vind 8 kt fra Øst
Sikt 10 km eller mer
ingen skyer under 1500 m og ingen bygeskyer
Sannsynlighet 40%
fra 25. klokken 09 UTC til 25. klokken 12 UTC
Brutte skyer i en høyde av 1200 ft

TAF: EKAH 242314Z 2500/2524 10008KT CAVOK PROB40 2509/2512 BKN012

Værobservasjoner og værvarsel for over 4000 flyplasser (METAR- og TAF-rapporter).

Tilgjengelige stasjoner er representert av de røde og gule prikkene på kartet.

Hold musepekeren over prikken for å se navnet på stasjonen.

Klikk så for å se værobservasjoner og -varsler.

For å forandre kartet kan du klikke på den grønne knappen med svart kryss for å zoome inn, på den grønne knappen med strek for å zoome ut, eller på de grønne pilene for å se tilstøtende kart.


METAR-TAF: